createdAt,value
2022-10-15T00:00:14.353Z,1.00
2022-10-15T00:05:07.477Z,1.15
2022-10-15T00:07:33.943Z,1.00
2022-10-15T00:10:00.405Z,0.70
2022-10-15T00:12:26.918Z,0.90
2022-10-15T00:14:54.113Z,1.00
2022-10-15T00:17:20.788Z,1.17
2022-10-15T00:19:47.553Z,0.70
2022-10-15T00:22:14.034Z,0.75
2022-10-15T00:24:40.828Z,0.77
2022-10-15T00:27:07.316Z,1.00
2022-10-15T00:29:33.783Z,1.23
2022-10-15T00:32:00.323Z,0.80
2022-10-15T00:34:26.779Z,0.90
2022-10-15T00:36:53.244Z,0.68
2022-10-15T00:39:19.885Z,1.20
2022-10-15T00:41:46.449Z,0.80
2022-10-15T00:44:21.724Z,0.88
2022-10-15T00:46:50.497Z,0.60
2022-10-15T00:49:28.337Z,0.88
2022-10-15T00:51:57.484Z,0.73
2022-10-15T00:54:27.573Z,0.68
2022-10-15T00:56:55.696Z,0.82
2022-10-15T00:59:26.017Z,0.60
2022-10-15T01:01:53.227Z,1.15
2022-10-15T01:04:20.897Z,0.70
2022-10-15T01:06:47.418Z,0.82
2022-10-15T01:09:14.152Z,0.98
2022-10-15T01:11:51.083Z,0.75
2022-10-15T01:14:32.368Z,0.90
2022-10-15T01:17:34.337Z,0.80
2022-10-15T01:20:30.865Z,0.70
2022-10-15T01:23:22.375Z,0.90
2022-10-15T01:26:25.692Z,0.60
2022-10-15T01:29:24.482Z,0.90
2022-10-15T01:32:03.398Z,0.88
2022-10-15T01:34:37.220Z,0.70
2022-10-15T01:37:18.617Z,0.80
2022-10-15T01:39:59.392Z,0.80
2022-10-15T01:42:34.468Z,0.65
2022-10-15T01:45:07.212Z,0.73
2022-10-15T01:47:40.324Z,0.80
2022-10-15T01:50:09.723Z,0.70
2022-10-15T01:52:39.164Z,0.70
2022-10-15T01:55:09.789Z,0.70
2022-10-15T01:57:37.154Z,0.50
2022-10-15T02:02:32.534Z,0.80
2022-10-15T02:04:59.034Z,0.73
2022-10-15T02:07:57.900Z,0.90
2022-10-15T02:10:31.757Z,0.60
2022-10-15T02:13:21.445Z,0.80
2022-10-15T02:15:59.653Z,0.55
2022-10-15T02:18:41.342Z,0.80
2022-10-15T02:21:14.574Z,0.73
2022-10-15T02:23:54.342Z,0.50
2022-10-15T02:26:25.357Z,0.70
2022-10-15T02:28:57.460Z,0.80
2022-10-15T02:31:26.466Z,0.68
2022-10-15T02:33:58.016Z,0.80
2022-10-15T02:36:24.597Z,0.80
2022-10-15T02:38:53.808Z,0.63
2022-10-15T02:41:20.601Z,0.85
2022-10-15T02:43:47.777Z,0.70
2022-10-15T02:46:16.025Z,0.57
2022-10-15T02:48:42.480Z,0.57
2022-10-15T02:51:09.022Z,0.70
2022-10-15T02:53:35.525Z,0.70
2022-10-15T02:56:01.977Z,0.70
2022-10-15T02:58:29.289Z,0.63
2022-10-15T03:00:55.896Z,1.08
2022-10-15T03:03:22.981Z,0.45
2022-10-15T03:05:49.692Z,0.70
2022-10-15T03:08:16.140Z,0.75
2022-10-15T03:10:42.605Z,0.70
2022-10-15T03:13:09.173Z,0.60
2022-10-15T03:15:36.720Z,0.52
2022-10-15T03:18:03.773Z,0.60
2022-10-15T03:20:30.263Z,0.50
2022-10-15T03:22:56.927Z,0.57
2022-10-15T03:25:23.379Z,0.68
2022-10-15T03:27:52.840Z,0.50
2022-10-15T03:30:20.039Z,0.45
2022-10-15T03:32:48.106Z,0.70
2022-10-15T03:35:14.999Z,0.50
2022-10-15T03:37:41.499Z,0.65
2022-10-15T03:40:13.409Z,0.70
2022-10-15T03:42:41.324Z,0.60
2022-10-15T03:45:08.659Z,0.50
2022-10-15T03:47:35.272Z,0.60
2022-10-15T03:50:01.770Z,0.52
2022-10-15T03:52:28.342Z,0.60
2022-10-15T03:54:54.799Z,0.55
2022-10-15T03:57:21.264Z,0.40
2022-10-15T03:59:47.716Z,0.60
2022-10-15T04:02:14.209Z,0.57
2022-10-15T04:04:40.648Z,0.47
2022-10-15T04:07:07.099Z,0.45
2022-10-15T04:09:33.564Z,0.40
2022-10-15T04:12:00.022Z,0.60
2022-10-15T04:14:26.474Z,0.60
2022-10-15T04:16:52.931Z,0.40
2022-10-15T04:19:19.422Z,0.60
2022-10-15T04:21:45.868Z,0.50
2022-10-15T04:24:12.321Z,0.50
2022-10-15T04:26:39.069Z,0.60
2022-10-15T04:29:05.522Z,0.50
2022-10-15T04:31:32.073Z,0.60
2022-10-15T04:33:58.588Z,0.55
2022-10-15T04:36:25.147Z,0.68
2022-10-15T04:38:52.772Z,0.40
2022-10-15T04:41:19.270Z,0.60
2022-10-15T04:43:45.733Z,0.47
2022-10-15T04:46:12.314Z,0.70
2022-10-15T04:48:42.215Z,0.60
2022-10-15T04:51:13.285Z,0.57
2022-10-15T04:53:40.275Z,0.55
2022-10-15T04:56:10.401Z,0.70
2022-10-15T04:58:37.268Z,0.50
2022-10-15T05:01:06.977Z,0.40
2022-10-15T05:03:36.578Z,0.77
2022-10-15T05:06:13.967Z,0.50
2022-10-15T05:08:43.422Z,0.60
2022-10-15T05:11:31.828Z,0.43
2022-10-15T05:13:58.708Z,0.55
2022-10-15T05:16:27.812Z,0.50
2022-10-15T05:18:59.763Z,0.57
2022-10-15T05:21:26.577Z,0.50
2022-10-15T05:23:53.344Z,0.60
2022-10-15T05:26:22.430Z,0.52
2022-10-15T05:28:50.489Z,0.52
2022-10-15T05:31:22.876Z,0.60
2022-10-15T05:33:51.306Z,0.47
2022-10-15T05:36:17.691Z,0.82
2022-10-15T05:38:49.470Z,0.60
2022-10-15T05:41:16.088Z,0.50
2022-10-15T05:43:43.091Z,0.60
2022-10-15T05:46:09.748Z,0.52
2022-10-15T05:48:36.188Z,0.50
2022-10-15T05:51:08.053Z,0.60
2022-10-15T05:53:34.821Z,0.50
2022-10-15T05:56:01.597Z,0.50
2022-10-15T05:58:33.309Z,0.60
2022-10-15T06:01:05.966Z,0.40
2022-10-15T06:03:32.686Z,0.60
2022-10-15T06:05:59.138Z,0.43
2022-10-15T06:08:25.695Z,0.65
2022-10-15T06:10:52.159Z,0.60
2022-10-15T06:13:18.673Z,0.45
2022-10-15T06:15:46.244Z,0.60
2022-10-15T06:18:16.196Z,0.50
2022-10-15T06:20:43.913Z,0.60
2022-10-15T06:23:11.961Z,0.60
2022-10-15T06:25:38.620Z,0.70
2022-10-15T06:28:06.800Z,0.60
2022-10-15T06:30:33.634Z,0.80
2022-10-15T06:33:00.287Z,0.82
2022-10-15T06:35:30.313Z,0.90
2022-10-15T06:38:02.943Z,0.60
2022-10-15T06:40:30.686Z,0.60
2022-10-15T06:43:08.220Z,0.60
2022-10-15T06:45:40.111Z,0.70
2022-10-15T06:48:07.734Z,0.77
2022-10-15T06:50:36.302Z,0.60
2022-10-15T06:53:03.368Z,0.82
2022-10-15T06:55:29.880Z,0.80
2022-10-15T06:57:57.009Z,0.75
2022-10-15T07:00:24.755Z,0.50
2022-10-15T07:02:51.734Z,0.73
2022-10-15T07:05:19.039Z,0.60
2022-10-15T07:07:56.511Z,0.80
2022-10-15T07:10:24.023Z,0.70
2022-10-15T07:12:50.565Z,0.65
2022-10-15T07:15:17.313Z,0.60
2022-10-15T07:17:51.560Z,0.80
2022-10-15T07:20:22.017Z,0.73
2022-10-15T07:22:52.096Z,0.70
2022-10-15T07:25:18.794Z,0.80
2022-10-15T07:27:45.357Z,0.88
2022-10-15T07:30:11.939Z,0.90
2022-10-15T07:32:38.461Z,0.82
2022-10-15T07:35:05.355Z,0.63
2022-10-15T07:37:32.033Z,0.90
2022-10-15T07:39:58.510Z,0.88
2022-10-15T07:42:25.728Z,0.88
2022-10-15T07:44:52.220Z,0.85
2022-10-15T07:47:18.777Z,0.70
2022-10-15T07:49:45.225Z,0.90
2022-10-15T07:52:11.761Z,1.00
2022-10-15T07:54:38.389Z,0.82
2022-10-15T07:57:07.078Z,0.85
2022-10-15T07:59:34.574Z,0.95
2022-10-15T08:02:01.448Z,0.70
2022-10-15T08:04:28.141Z,1.27
2022-10-15T08:06:54.616Z,0.90
2022-10-15T08:09:21.128Z,0.50
2022-10-15T08:11:47.595Z,0.98
2022-10-15T08:14:14.167Z,1.23
2022-10-15T08:16:40.638Z,0.95
2022-10-15T08:19:07.087Z,0.80
2022-10-15T08:21:33.535Z,0.85
2022-10-15T08:24:00.789Z,0.90
2022-10-15T08:26:27.351Z,1.27
2022-10-15T08:28:53.944Z,1.13
2022-10-15T08:31:20.454Z,1.27
2022-10-15T08:33:47.010Z,1.00
2022-10-15T08:36:13.529Z,0.70
2022-10-15T08:38:40.005Z,1.00
2022-10-15T08:41:19.961Z,0.90
2022-10-15T08:43:47.337Z,1.02
2022-10-15T08:48:56.328Z,0.60
2022-10-15T08:51:26.085Z,0.80
2022-10-15T08:53:57.573Z,0.80
2022-10-15T08:56:33.680Z,0.63
2022-10-15T08:59:07.718Z,0.82
2022-10-15T09:01:52.712Z,0.75
2022-10-15T09:04:37.730Z,0.60
2022-10-15T09:07:26.872Z,0.80
2022-10-15T09:10:01.440Z,0.73
2022-10-15T09:12:57.025Z,0.85
2022-10-15T09:15:27.948Z,0.52
2022-10-15T09:17:54.945Z,0.55
2022-10-15T09:20:30.260Z,0.90
2022-10-15T09:22:56.824Z,0.90
2022-10-15T09:25:26.521Z,0.60
2022-10-15T09:27:56.625Z,0.73
2022-10-15T09:30:47.609Z,0.75
2022-10-15T09:33:33.125Z,0.60
2022-10-15T09:36:24.452Z,0.80
2022-10-15T09:39:25.062Z,0.77
2022-10-15T09:42:18.224Z,0.80
2022-10-15T09:44:46.781Z,0.73
2022-10-15T09:47:28.357Z,0.70
2022-10-15T09:49:54.914Z,0.80
2022-10-15T09:52:43.768Z,0.90
2022-10-15T09:55:51.990Z,1.25
2022-10-15T09:58:47.727Z,0.57
2022-10-15T10:01:40.662Z,0.70
2022-10-15T10:04:19.418Z,1.08
2022-10-15T10:06:53.746Z,0.80
2022-10-15T10:09:24.775Z,0.60
2022-10-15T10:11:54.791Z,0.77
2022-10-15T10:14:38.620Z,1.00
2022-10-15T10:17:16.422Z,0.70
2022-10-15T10:19:44.448Z,0.55
2022-10-15T10:22:20.492Z,0.60
2022-10-15T10:24:48.049Z,0.47
2022-10-15T10:27:24.387Z,0.40
2022-10-15T10:30:01.476Z,0.60
2022-10-15T10:32:34.419Z,0.75
2022-10-15T10:35:02.829Z,0.80
2022-10-15T10:37:29.739Z,0.70
2022-10-15T10:39:58.839Z,0.82
2022-10-15T10:42:31.100Z,0.90
2022-10-15T10:45:18.375Z,0.98
2022-10-15T10:47:45.272Z,0.93
2022-10-15T10:50:29.393Z,0.93
2022-10-15T10:52:57.070Z,1.25
2022-10-15T10:55:31.468Z,1.13
2022-10-15T10:58:02.255Z,1.00
2022-10-15T11:00:34.812Z,0.63
2022-10-15T11:03:01.853Z,0.70
2022-10-15T11:05:31.817Z,0.82
2022-10-15T11:08:07.426Z,0.68
2022-10-15T11:10:47.784Z,1.00
2022-10-15T11:13:34.993Z,0.82
2022-10-15T11:16:11.258Z,0.80
2022-10-15T11:18:58.794Z,0.80
2022-10-15T11:21:43.935Z,0.77
2022-10-15T11:24:25.990Z,1.02
2022-10-15T11:27:11.745Z,0.90
2022-10-15T11:30:25.246Z,0.70
2022-10-15T11:33:08.815Z,0.70
2022-10-15T11:36:20.957Z,0.50
2022-10-15T11:39:11.795Z,0.57
2022-10-15T11:41:56.981Z,0.60
2022-10-15T11:44:47.909Z,0.60
2022-10-15T11:47:33.091Z,0.40
2022-10-15T11:50:04.864Z,0.90
2022-10-15T11:52:56.570Z,0.77
2022-10-15T11:55:39.214Z,0.70
2022-10-15T11:58:13.517Z,0.50
2022-10-15T12:00:52.873Z,0.57
2022-10-15T12:03:25.077Z,0.52
2022-10-15T12:06:00.805Z,1.17
2022-10-15T12:08:32.905Z,0.68
2022-10-15T12:11:02.441Z,0.50
2022-10-15T12:13:28.847Z,0.80
2022-10-15T12:16:20.149Z,0.80
2022-10-15T12:19:04.807Z,0.73
2022-10-15T12:22:06.770Z,0.63
2022-10-15T12:24:44.528Z,0.60
2022-10-15T12:27:17.069Z,0.70
2022-10-15T12:29:43.605Z,0.60
2022-10-15T12:32:25.125Z,0.63
2022-10-15T12:35:00.845Z,0.70
2022-10-15T12:37:31.699Z,0.88
2022-10-15T12:40:01.916Z,0.60
2022-10-15T12:42:31.050Z,0.50
2022-10-15T12:45:00.714Z,0.63
2022-10-15T12:47:45.930Z,0.80
2022-10-15T12:50:27.274Z,0.50
2022-10-15T12:53:15.580Z,0.40
2022-10-15T12:55:42.023Z,0.50
2022-10-15T12:58:35.081Z,0.60
2022-10-15T13:01:14.493Z,0.50
2022-10-15T13:06:13.285Z,0.68
2022-10-15T13:08:44.181Z,0.60
2022-10-15T13:11:20.754Z,0.60
2022-10-15T13:13:49.968Z,0.60
2022-10-15T13:16:17.034Z,0.50
2022-10-15T13:18:50.580Z,0.60
2022-10-15T13:21:17.195Z,0.63
2022-10-15T13:23:51.066Z,0.57
2022-10-15T13:26:27.299Z,0.47
2022-10-15T13:28:57.695Z,0.30
2022-10-15T13:31:30.271Z,0.40
2022-10-15T13:34:26.463Z,0.38
2022-10-15T13:36:54.921Z,0.60
2022-10-15T13:39:24.600Z,0.68
2022-10-15T13:41:51.489Z,0.68
2022-10-15T13:44:21.394Z,0.50
2022-10-15T13:46:47.934Z,0.40
2022-10-15T13:49:14.909Z,0.60
2022-10-15T13:51:45.165Z,0.55
2022-10-15T13:54:21.563Z,0.50
2022-10-15T13:56:57.947Z,0.50
2022-10-15T13:59:26.853Z,0.60
2022-10-15T14:02:00.839Z,0.60
2022-10-15T14:04:32.628Z,0.43
2022-10-15T14:07:03.696Z,0.52
2022-10-15T14:09:34.874Z,0.52
2022-10-15T14:12:04.453Z,0.68
2022-10-15T14:14:39.323Z,0.50
2022-10-15T14:17:14.377Z,0.60
2022-10-15T14:19:41.074Z,0.50
2022-10-15T14:22:07.713Z,0.60
2022-10-15T14:24:36.833Z,0.73
2022-10-15T14:27:13.698Z,0.65
2022-10-15T14:29:43.666Z,0.50
2022-10-15T14:32:20.598Z,0.60
2022-10-15T14:34:48.148Z,0.50
2022-10-15T14:37:36.334Z,0.50
2022-10-15T14:40:11.369Z,0.50
2022-10-15T14:42:46.498Z,0.52
2022-10-15T14:45:18.738Z,0.40
2022-10-15T14:47:57.132Z,0.50
2022-10-15T14:50:27.057Z,0.50
2022-10-15T14:52:54.706Z,0.43
2022-10-15T14:55:29.152Z,0.50
2022-10-15T14:57:55.716Z,0.65
2022-10-15T15:00:46.901Z,0.70
2022-10-15T15:03:25.904Z,0.40
2022-10-15T15:05:54.408Z,0.50
2022-10-15T15:08:22.358Z,0.60
2022-10-15T15:10:49.899Z,0.47
2022-10-15T15:13:24.647Z,0.70
2022-10-15T15:15:52.053Z,0.50
2022-10-15T15:20:48.205Z,0.60
2022-10-15T15:23:19.980Z,0.45
2022-10-15T15:25:47.613Z,0.70
2022-10-15T15:28:16.539Z,0.50
2022-10-15T15:30:45.094Z,0.40
2022-10-15T15:33:13.772Z,0.50
2022-10-15T15:35:50.849Z,0.70
2022-10-15T15:38:19.021Z,0.60
2022-10-15T15:40:45.712Z,0.45
2022-10-15T15:43:13.772Z,0.50
2022-10-15T15:45:40.731Z,0.57
2022-10-15T15:48:07.224Z,0.50
2022-10-15T15:50:34.625Z,0.50
2022-10-15T15:55:27.597Z,0.60
2022-10-15T15:57:54.063Z,0.30
2022-10-15T16:00:20.532Z,0.52
2022-10-15T16:02:47.366Z,0.60
2022-10-15T16:05:16.522Z,0.60
2022-10-15T16:07:44.253Z,0.73
2022-10-15T16:10:12.554Z,0.50
2022-10-15T16:12:40.042Z,0.65
2022-10-15T16:15:09.028Z,0.68
2022-10-15T16:17:38.228Z,0.50
2022-10-15T16:20:05.683Z,0.65
2022-10-15T16:22:32.149Z,0.50
2022-10-15T16:24:58.603Z,0.90
2022-10-15T16:27:26.852Z,0.55
2022-10-15T16:29:53.679Z,0.63
2022-10-15T16:32:20.229Z,0.50
2022-10-15T16:34:46.891Z,0.60
2022-10-15T16:37:13.328Z,0.52
2022-10-15T16:39:39.778Z,0.50
2022-10-15T16:42:06.451Z,0.60
2022-10-15T16:44:33.024Z,0.47
2022-10-15T16:46:59.467Z,0.65
2022-10-15T16:49:26.086Z,0.63
2022-10-15T16:51:52.583Z,0.63
2022-10-15T16:54:19.130Z,0.70
2022-10-15T16:56:49.112Z,0.70
2022-10-15T16:59:18.832Z,0.90
2022-10-15T17:01:45.352Z,0.60
2022-10-15T17:04:11.846Z,0.80
2022-10-15T17:06:38.310Z,0.80
2022-10-15T17:09:04.821Z,1.17
2022-10-15T17:11:34.822Z,0.93
2022-10-15T17:14:05.036Z,0.90
2022-10-15T17:16:35.152Z,1.48
2022-10-15T17:19:02.672Z,1.00
2022-10-15T17:21:30.782Z,0.90
2022-10-15T17:23:59.900Z,0.80
2022-10-15T17:26:29.577Z,1.55
2022-10-15T17:28:56.657Z,1.13
2022-10-15T17:31:25.733Z,1.30
2022-10-15T17:34:01.408Z,1.00
2022-10-15T17:36:30.084Z,1.20
2022-10-15T17:38:57.491Z,1.67
2022-10-15T17:43:53.054Z,1.77
2022-10-15T17:46:22.332Z,1.65
2022-10-15T17:48:48.809Z,1.77
2022-10-15T17:51:17.941Z,2.00
2022-10-15T17:53:45.213Z,1.20
2022-10-15T17:56:26.412Z,1.48
2022-10-15T17:58:52.899Z,1.17
2022-10-15T18:01:33.489Z,1.00
2022-10-15T18:04:11.437Z,1.13
2022-10-15T18:06:37.895Z,1.20
2022-10-15T18:09:04.436Z,1.33
2022-10-15T18:11:35.053Z,1.42
2022-10-15T18:14:01.960Z,1.38
2022-10-15T18:16:28.784Z,1.52
2022-10-15T18:18:55.918Z,1.13
2022-10-15T18:21:24.900Z,1.60
2022-10-15T18:23:51.494Z,1.10
2022-10-15T18:26:21.089Z,1.60
2022-10-15T18:28:49.629Z,1.25
2022-10-15T18:31:17.001Z,1.50
2022-10-15T18:36:16.900Z,1.45
2022-10-15T18:38:43.589Z,1.55
2022-10-15T18:41:19.050Z,1.33
2022-10-15T18:43:59.483Z,1.42
2022-10-15T18:46:27.761Z,1.70
2022-10-15T18:48:54.944Z,1.40
2022-10-15T18:51:22.668Z,1.30
2022-10-15T18:53:49.105Z,1.27
2022-10-15T18:56:15.600Z,1.27
2022-10-15T18:58:45.702Z,1.20
2022-10-15T19:01:13.397Z,1.48
2022-10-15T19:03:40.663Z,1.40
2022-10-15T19:06:07.148Z,1.33
2022-10-15T19:08:34.090Z,1.73
2022-10-15T19:11:06.274Z,1.45
2022-10-15T19:13:32.782Z,1.67
2022-10-15T19:16:04.480Z,1.58
2022-10-15T19:18:31.905Z,1.50
2022-10-15T19:20:58.398Z,1.38
2022-10-15T19:23:24.912Z,1.33
2022-10-15T19:25:51.516Z,1.50
2022-10-15T19:28:18.070Z,1.90
2022-10-15T19:30:44.809Z,1.40
2022-10-15T19:33:11.347Z,1.70
2022-10-15T19:35:39.664Z,2.13
2022-10-15T19:38:06.502Z,1.80
2022-10-15T19:40:40.469Z,2.50
2022-10-15T19:43:07.441Z,1.40
2022-10-15T19:45:44.988Z,1.48
2022-10-15T19:48:13.301Z,1.90
2022-10-15T19:50:42.388Z,1.50
2022-10-15T19:53:11.577Z,1.38
2022-10-15T19:55:39.159Z,1.60
2022-10-15T19:58:06.674Z,1.88
2022-10-15T20:00:33.455Z,1.98
2022-10-15T20:03:00.076Z,1.85
2022-10-15T20:05:26.555Z,1.92
2022-10-15T20:07:53.038Z,1.92
2022-10-15T20:10:23.555Z,1.63
2022-10-15T20:12:52.158Z,1.80
2022-10-15T20:15:18.724Z,1.65
2022-10-15T20:17:45.168Z,1.90
2022-10-15T20:20:11.664Z,1.65
2022-10-15T20:22:38.128Z,1.98
2022-10-15T20:25:04.823Z,1.58
2022-10-15T20:27:31.280Z,1.50
2022-10-15T20:29:57.735Z,1.92
2022-10-15T20:32:34.141Z,1.50
2022-10-15T20:35:02.038Z,1.95
2022-10-15T20:37:28.576Z,1.75
2022-10-15T20:42:26.526Z,1.42
2022-10-15T20:44:53.128Z,1.75
2022-10-15T20:47:20.067Z,1.48
2022-10-15T20:49:50.518Z,1.42
2022-10-15T20:52:17.030Z,1.45
2022-10-15T20:54:43.690Z,1.60
2022-10-15T20:57:11.005Z,1.85
2022-10-15T21:02:04.133Z,2.00
2022-10-15T21:04:30.586Z,1.80
2022-10-15T21:06:57.383Z,1.85
2022-10-15T21:09:24.124Z,1.77
2022-10-15T21:11:50.645Z,1.80
2022-10-15T21:14:17.180Z,2.33
2022-10-15T21:16:43.634Z,1.83
2022-10-15T21:19:10.109Z,1.80
2022-10-15T21:21:36.781Z,1.45
2022-10-15T21:24:03.402Z,1.92
2022-10-15T21:26:29.876Z,1.90
2022-10-15T21:28:58.332Z,1.63
2022-10-15T21:31:26.360Z,1.70
2022-10-15T21:33:54.588Z,1.65
2022-10-15T21:36:27.841Z,1.90
2022-10-15T21:41:24.877Z,2.10
2022-10-15T21:43:51.948Z,1.60
2022-10-15T21:46:18.784Z,1.70
2022-10-15T21:48:45.479Z,2.00
2022-10-15T21:51:17.136Z,1.60
2022-10-15T21:53:44.210Z,1.50
2022-10-15T21:56:10.903Z,1.63
2022-10-15T21:58:39.207Z,2.05
2022-10-15T22:01:29.035Z,1.85
2022-10-15T22:04:09.258Z,1.50
2022-10-15T22:06:37.251Z,1.42
2022-10-15T22:09:04.831Z,1.70
2022-10-15T22:11:34.311Z,1.48
2022-10-15T22:14:03.819Z,1.45
2022-10-15T22:16:34.134Z,1.38
2022-10-15T22:19:00.640Z,1.67
2022-10-15T22:21:29.768Z,2.08
2022-10-15T22:24:01.650Z,1.65
2022-10-15T22:26:31.103Z,1.40
2022-10-15T22:28:59.077Z,1.67
2022-10-15T22:31:26.016Z,1.60
2022-10-15T22:33:52.729Z,1.33
2022-10-15T22:36:22.414Z,1.50
2022-10-15T22:38:53.672Z,1.50
2022-10-15T22:41:20.416Z,1.52
2022-10-15T22:43:46.903Z,1.80
2022-10-15T22:46:13.997Z,1.45
2022-10-15T22:48:42.059Z,1.50
2022-10-15T22:51:11.753Z,1.40
2022-10-15T22:53:38.500Z,1.50
2022-10-15T22:56:08.327Z,1.60
2022-10-15T22:58:36.093Z,1.58
2022-10-15T23:01:14.774Z,1.73
2022-10-15T23:03:43.176Z,1.52
2022-10-15T23:06:10.464Z,1.30
2022-10-15T23:08:37.755Z,0.95
2022-10-15T23:11:41.081Z,1.25
2022-10-15T23:14:11.240Z,1.10
2022-10-15T23:16:40.730Z,1.42
2022-10-15T23:19:21.612Z,1.52
2022-10-15T23:21:49.339Z,1.17
2022-10-15T23:24:18.152Z,1.15
2022-10-15T23:26:44.669Z,1.48
2022-10-15T23:29:16.828Z,1.30
2022-10-15T23:31:44.005Z,1.55
2022-10-15T23:36:39.984Z,1.30
2022-10-15T23:39:06.790Z,1.30
2022-10-15T23:41:33.512Z,1.15
2022-10-15T23:44:00.341Z,1.20
2022-10-15T23:46:26.854Z,1.60
2022-10-15T23:48:53.312Z,1.27
2022-10-15T23:51:24.626Z,1.30
2022-10-15T23:53:52.566Z,1.50
2022-10-15T23:56:19.616Z,1.35
2022-10-15T23:58:54.783Z,1.00
